Flight Track Log - Related Links

Times and Time Zones

All times are in EDT time to prevent confusion due to time zone crossing. See the UAL4625 flight status page for this flight to view local times or setup timezone preferences in your user account.

Time Position Orientation Groundspeed Altitude Reporting Facility
EDT Latitude Longitude Course Direction KTS MPH feet Rate Location/Type
Sat 10:14:46 AM 42.3500 -71.0333 240° Southwest 147 169 800  Level KA90
Sat 10:15:16 AM 42.3333 -71.0500 216° Southwest 189 217 2,000 1,867 Climbing KA90
Sat 10:16:16 AM 42.3000 -71.1167 236° Southwest 237 273 3,600 1,795 Climbing KA90
Sat 10:17:23 AM 42.2686 -71.1944 241° Southwest 234 269 5,800 2,031 Climbing Boston Center
Sat 10:18:00 AM 42.3144 -70.7195 172° South  Level FlightAware Approximate
Sat 10:18:23 AM 42.2611 -71.2786 263° West 244 281 7,900  Level Boston Center
Sat 10:19:00 AM 42.2482 -70.7943 228° Southwest  Level FlightAware Approximate
Sat 10:19:23 AM 42.2517 -71.3828 263° West 261 300 9,900  Level Boston Center
Sat 10:20:00 AM 42.1985 -70.8980 240° Southwest  Level FlightAware Approximate
Sat 10:20:23 AM 42.2464 -71.4922 266° West 261 300 11,400  Level Boston Center
Sat 10:21:23 AM 42.2408 -71.5875 266° West 281 323 12,400 1,100 Climbing Boston Center
Sat 10:22:23 AM 42.2314 -71.7000 264° West 300 345 13,600 1,150 Climbing Boston Center
Sat 10:23:23 AM 42.2217 -71.8289 264° West 315 362 14,700 1,050 Climbing Boston Center
Sat 10:24:23 AM 42.2158 -71.9411 266° West 322 371 15,700 850 Climbing Boston Center
Sat 10:25:23 AM 42.2061 -72.0758 264° West 334 384 16,400 600 Climbing Boston Center
Sat 10:26:23 AM 42.1958 -72.1906 263° West 345 397 16,900 600 Climbing Boston Center
Sat 10:27:23 AM 42.1606 -72.3253 251° West 350 403 17,600 700 Climbing Boston Center
Sat 10:28:23 AM 42.1294 -72.4400 250° West 356 410 18,300 750 Climbing Boston Center
Sat 10:29:23 AM 42.0961 -72.5631 250° West 356 410 19,100 850 Climbing Boston Center
Sat 10:30:23 AM 42.0603 -72.6944 250° West 356 410 20,000 900 Climbing Boston Center
Sat 10:31:23 AM 42.0247 -72.8203 249° West 349 402 20,900 850 Climbing Boston Center
Sat 10:32:23 AM 41.9908 -72.9456 250° West 354 407 21,700 850 Climbing Boston Center
Sat 10:33:23 AM 41.9547 -73.0653 248° West 368 423 22,600 850 Climbing Boston Center
Sat 10:34:23 AM 41.8958 -73.1681 232° Southwest 362 417 23,400 850 Climbing Boston Center
Sat 10:35:23 AM 41.8347 -73.2675 231° Southwest 357 411 24,300 850 Climbing Boston Center
Sat 10:36:23 AM 41.7819 -73.3450 228° Southwest 352 405 25,100 1,050 Climbing Boston Center
Sat 10:37:23 AM 41.7019 -73.4578 226° Southwest 352 405 26,400 1,150 Climbing Boston Center
Sat 10:38:23 AM 41.6406 -73.5483 228° Southwest 346 398 27,400 593 Climbing Boston Center
Sat 10:40:05 AM 41.5356 -73.7033 228° Southwest 337 388 28,000 221 Climbing New York Center
Sat 10:41:06 AM 41.4642 -73.8053 227° Southwest 352 405 28,000  Level New York Center
Sat 10:42:06 AM 41.3928 -73.9100 228° Southwest 374 430 28,000  Level New York Center
Sat 10:43:06 AM 41.3169 -74.0142 226° Southwest 387 445 28,000  Level New York Center
Sat 10:44:07 AM 41.2433 -74.1181 227° Southwest 393 452 28,000  Level New York Center
Sat 10:45:07 AM 41.1653 -74.2217 225° Southwest 393 452 28,000  Level New York Center
Sat 10:46:05 AM 41.0914 -74.3308 228° Southwest 393 452 28,000  Level New York Center
Sat 10:47:05 AM 41.0150 -74.4394 227° Southwest 403 464 28,000  Level New York Center
Sat 10:48:05 AM 40.9367 -74.5425 225° Southwest 408 470 28,000  Level New York Center
Sat 10:49:06 AM 40.8764 -74.6681 238° Southwest 413 475 28,000  Level New York Center
Sat 10:50:06 AM 40.8200 -74.7964 240° Southwest 413 475 28,000  Level New York Center
Sat 10:51:07 AM 40.7614 -74.9272 239° Southwest 407 468 28,000 -49 Level New York Center
Sat 10:52:08 AM 40.7047 -75.0525 239° Southwest 407 468 27,900  Descending New York Center
Sat 10:53:05 AM 40.6461 -75.1744 238° Southwest 414 476 28,000 51 Climbing New York Center
Sat 10:54:06 AM 40.5869 -75.3047 239° Southwest 414 476 28,000 -541 Level New York Center
Sat 10:55:07 AM 40.5278 -75.4319 239° Southwest 414 476 26,900 -1,884 Descending New York Center
Sat 10:56:07 AM 40.4686 -75.5614 239° Southwest 414 476 24,200 -2,400 Descending New York Center
Sat 10:57:07 AM 40.4139 -75.6750 238° Southwest 397 457 22,100 -2,085 Descending New York Center
Sat 10:58:05 AM 40.3589 -75.7936 239° Southwest 391 450 20,100 -1,068 Descending New York Center
Sat 10:59:05 AM 40.2972 -75.9197 237° Southwest 386 444 20,000 -50 Descending New York Center
Sat 11:00:06 AM 40.2397 -76.0406 238° Southwest 386 444 20,000 -49 Level New York Center
Sat 11:01:07 AM 40.1844 -76.1561 238° Southwest 386 444 19,900 -958 Descending New York Center
Sat 11:02:05 AM 40.1358 -76.2581 238° Southwest 386 444 18,100 -1,513 Descending New York Center
Sat 11:03:06 AM 40.0781 -76.3811 238° Southwest 366 421 16,900 -1,017 Descending New York Center
Sat 11:05:02 AM 39.9833 -76.6000 241° Southwest 361 415 15,100 -648 Descending Potomac TRACON
Sat 11:06:02 AM 39.9333 -76.7167 241° Southwest 361 415 15,000 -300 Descending Potomac TRACON
Sat 11:07:02 AM 39.8667 -76.8167 229° Southwest 362 417 14,500 -1,250 Descending Potomac TRACON
Sat 11:08:02 AM 39.8167 -76.9333 241° Southwest 359 413 12,500 -1,670 Descending Potomac TRACON
Sat 11:08:57 AM 39.7667 -77.0333 237° Southwest 361 415 11,300 -1,250 Descending Potomac TRACON
Sat 11:10:02 AM 39.7167 -77.1500 241° Southwest 348 400 10,000 -650 Descending Potomac TRACON
Sat 11:10:57 AM 39.6833 -77.2333 243° Southwest 292 336 10,000 -313 Level Potomac TRACON
Sat 11:11:57 AM 39.6167 -77.2833 210° Southwest 284 327 9,400 -850 Descending Potomac TRACON
Sat 11:12:57 AM 39.5333 -77.3167 197° South 291 335 8,300 -950 Descending Potomac TRACON
Sat 11:13:57 AM 39.4667 -77.3500 201° Southwest 281 323 7,500 -900 Descending Potomac TRACON
Sat 11:14:57 AM 39.3833 -77.3667 189° South 277 319 6,500 -1,150 Descending Potomac TRACON
Sat 11:15:57 AM 39.3167 -77.3667 180° South 270 311 5,200 -789 Descending Potomac TRACON
Sat 11:16:51 AM 39.2500 -77.3667 180° South 266 306 5,000 -421 Descending Potomac TRACON
Sat 11:17:51 AM 39.1833 -77.3667 180° South 272 313 4,400 -500 Descending Potomac TRACON
Sat 11:18:51 AM 39.1000 -77.3500 171° South 257 296 4,000 -200 Descending Potomac TRACON
Sat 11:19:51 AM 39.0333 -77.3500 180° South 264 304 4,000 -350 Level Potomac TRACON
Sat 11:20:51 AM 38.9500 -77.3667 189° South 261 300 3,300 -500 Descending Potomac TRACON
Sat 11:21:51 AM 38.8833 -77.3667 180° South 266 306 3,000 -261 Descending Potomac TRACON
Sat 11:22:46 AM 38.8167 -77.3667 180° South 228 262 2,800 -522 Descending Potomac TRACON
Sat 11:23:46 AM 38.7667 -77.3833 195° South 227 261 2,000 -800 Descending Potomac TRACON

Login

Don't have an account? Register now (free) for customized features, flight alerts, and more!